Time;durP1;ratioP1;P1;durP2;ratioP2;P2;SDS_P1;SDS_P2;PMS_P1;PMS_P2;Temp;Humidity;BMP_temperature;BMP_pressure;BME280_temperature;BME280_humidity;BME280_pressure;Samples;Min_cycle;Max_cycle;Signal;HPM_P1;HPM_P2
2023/08/14 04:01:36;;;;;;;0.60;0.10;;;22.00;99.90;;;;;;5460820;23;20517;-68
2023/08/14 04:04:04;;;;;;;4.87;1.13;;;21.70;99.90;;;;;;4971612;28;20456;-69
2023/08/14 04:06:32;;;;;;;0.60;0.10;;;;;;;;;;4972276;28;20933;-68
2023/08/14 04:09:01;;;;;;;0.60;0.10;;;21.70;99.90;;;;;;4973519;28;20579;-68
2023/08/14 04:11:30;;;;;;;0.97;0.87;;;;;;;;;;4973326;28;20568;-68
2023/08/14 04:13:58;;;;;;;0.60;0.10;;;;;;;;;;4973832;28;20491;-69
2023/08/14 04:16:41;;;;;;;0.60;0.20;;;;;;;;;;5086548;23;20526;-67
2023/08/14 04:19:13;;;;;;;0.60;0.10;;;21.70;99.90;;;;;;5010995;28;20809;-67
2023/08/14 04:21:41;;;;;;;0.60;0.20;;;21.80;99.90;;;;;;5011568;28;20439;-68
2023/08/14 04:24:09;;;;;;;0.60;0.20;;;21.90;99.90;;;;;;5012691;28;20815;-67
2023/08/14 04:26:38;;;;;;;0.60;0.10;;;;;;;;;;5010377;28;20979;-67
2023/08/14 04:29:06;;;;;;;0.60;0.10;;;21.90;99.90;;;;;;5010821;28;20483;-67
2023/08/14 04:31:34;;;;;;;0.60;0.10;;;21.80;99.90;;;;;;5009503;28;20528;-67
2023/08/14 04:34:03;;;;;;;0.60;0.10;;;21.80;99.90;;;;;;5011417;28;20451;-67
2023/08/14 04:36:33;;;;;;;0.60;0.10;;;21.70;99.90;;;;;;5001949;28;20469;-67
2023/08/14 04:39:01;;;;;;;0.60;0.10;;;21.70;99.90;;;;;;4992367;28;21140;-70
2023/08/14 04:41:29;;;;;;;0.60;0.10;;;;;;;;;;4996309;28;20880;-67
2023/08/14 04:43:57;;;;;;;0.60;0.10;;;21.60;99.90;;;;;;4995646;28;20501;-67
2023/08/14 04:46:30;;;;;;;0.60;0.20;;;21.50;99.90;;;;;;4995707;28;20549;-67
2023/08/14 04:49:12;;;;;;;0.60;0.20;;;;;;;;;;4995779;28;20515;-67
2023/08/14 04:51:41;;;;;;;1.53;0.83;;;21.50;99.90;;;;;;4999869;28;20974;-66
2023/08/14 04:54:09;;;;;;;0.60;0.20;;;;;;;;;;5015005;28;20451;-66
2023/08/14 04:56:37;;;;;;;0.60;0.10;;;21.50;99.90;;;;;;5006821;28;20461;-67
2023/08/14 04:59:05;;;;;;;0.60;0.10;;;21.50;99.90;;;;;;5015202;28;20478;-67
2023/08/14 05:01:33;;;;;;;0.60;0.10;;;21.50;99.90;;;;;;5014958;28;20537;-67
2023/08/14 05:04:01;;;;;;;0.60;0.10;;;21.50;99.90;;;;;;5014973;28;20447;-66
2023/08/14 05:06:29;;;;;;;0.60;0.10;;;21.40;99.90;;;;;;5014762;28;20556;-66
2023/08/14 05:08:58;;;;;;;0.60;0.20;;;21.50;99.90;;;;;;5008200;28;20661;-66
2023/08/14 05:11:29;;;;;;;0.60;0.10;;;;;;;;;;5006814;28;20445;-66
2023/08/14 05:13:57;;;;;;;0.60;0.10;;;21.40;99.90;;;;;;5014433;28;20538;-66
2023/08/14 05:16:25;;;;;;;0.60;0.20;;;21.50;99.90;;;;;;4993390;28;20566;-66
2023/08/14 05:18:53;;;;;;;0.60;0.10;;;21.50;99.90;;;;;;5011264;28;20454;-67
2023/08/14 05:21:20;;;;;;;0.60;0.10;;;21.60;99.90;;;;;;5014755;28;20439;-67
2023/08/14 05:23:49;;;;;;;0.60;0.10;;;;;;;;;;5014307;28;20548;-66
2023/08/14 05:26:18;;;;;;;0.60;0.10;;;21.70;99.90;;;;;;5014481;28;20899;-66
2023/08/14 05:28:46;;;;;;;0.60;0.10;;;;;;;;;;5014727;28;20569;-66
2023/08/14 05:31:14;;;;;;;0.60;0.10;;;21.70;99.90;;;;;;5014654;28;20553;-67
2023/08/14 05:33:42;;;;;;;0.60;0.10;;;21.70;99.90;;;;;;5014535;28;20480;-67
2023/08/14 05:36:10;;;;;;;0.60;0.10;;;;;;;;;;5014160;28;20870;-67
2023/08/14 05:38:38;;;;;;;0.60;0.10;;;21.80;99.90;;;;;;5014280;28;20932;-67
2023/08/14 05:41:06;;;;;;;0.60;0.10;;;21.80;99.90;;;;;;5014062;28;20529;-66
2023/08/14 05:43:35;;;;;;;0.60;0.17;;;21.80;99.90;;;;;;5007501;28;20504;-66
2023/08/14 05:46:03;;;;;;;0.60;0.10;;;21.80;99.90;;;;;;4994395;28;20924;-67
2023/08/14 05:48:31;;;;;;;0.60;0.10;;;21.80;99.90;;;;;;4994558;28;20455;-67
2023/08/14 05:50:59;;;;;;;0.60;0.10;;;21.80;99.90;;;;;;4993921;28;21100;-66
2023/08/14 05:53:26;;;;;;;0.60;0.10;;;21.80;99.90;;;;;;4994810;28;20506;-66
2023/08/14 05:55:54;;;;;;;0.60;0.10;;;21.80;99.90;;;;;;4993954;28;20992;-68
2023/08/14 05:58:22;;;;;;;0.60;0.10;;;21.80;99.90;;;;;;4994562;28;20819;-67
2023/08/14 06:00:51;;;;;;;0.60;0.10;;;21.80;99.90;;;;;;4994326;28;20480;-66
2023/08/14 06:03:19;;;;;;;0.60;0.10;;;21.90;99.90;;;;;;4994140;28;20452;-65
2023/08/14 06:06:05;;;;;;;0.60;0.10;;;22.00;99.90;;;;;;5011613;28;20470;-66
2023/08/14 06:08:33;;;;;;;0.60;0.10;;;;;;;;;;5005192;28;20519;-65
2023/08/14 06:11:03;;;;;;;0.60;0.10;;;22.00;99.90;;;;;;5010037;28;20582;-66
2023/08/14 06:13:31;;;;;;;0.60;0.10;;;22.00;99.90;;;;;;5005274;28;20458;-66
2023/08/14 06:16:00;;;;;;;0.60;0.20;;;22.00;99.90;;;;;;5013283;28;20847;-66
2023/08/14 06:18:28;;;;;;;0.60;0.20;;;;;;;;;;5013597;28;20883;-66
2023/08/14 06:20:56;;;;;;;0.60;0.10;;;22.20;99.90;;;;;;5013326;28;20539;-66
2023/08/14 06:23:24;;;;;;;0.60;0.10;;;;;;;;;;5013227;28;20526;-67
2023/08/14 06:25:53;;;;;;;0.60;0.10;;;;;;;;;;5012057;28;21054;-67
2023/08/14 06:28:21;;;;;;;0.60;0.10;;;;;;;;;;5005120;28;20444;-67
2023/08/14 06:30:49;;;;;;;0.60;0.10;;;22.40;99.90;;;;;;5013471;28;20507;-67
2023/08/14 06:33:18;;;;;;;0.60;0.13;;;;;;;;;;5013345;28;20534;-66
2023/08/14 06:35:46;;;;;;;0.60;0.10;;;22.40;99.90;;;;;;5013156;28;21030;-66
2023/08/14 06:38:14;;;;;;;0.60;0.10;;;;;;;;;;5013241;28;20444;-65
2023/08/14 06:40:42;;;;;;;0.60;0.20;;;22.40;99.90;;;;;;5012907;28;20808;-65
2023/08/14 06:43:10;;;;;;;0.60;0.10;;;22.40;99.90;;;;;;5008792;28;20448;-66
2023/08/14 06:45:38;;;;;;;0.60;0.20;;;22.40;99.90;;;;;;4993454;28;20464;-67
2023/08/14 06:48:07;;;;;;;0.60;0.10;;;22.40;99.90;;;;;;4993875;28;20820;-67
2023/08/14 06:50:36;;;;;;;0.60;0.10;;;22.40;99.90;;;;;;5011796;28;20527;-67
2023/08/14 06:53:04;;;;;;;0.60;0.10;;;22.30;99.90;;;;;;5006042;28;20475;-65
2023/08/14 06:55:33;;;;;;;0.60;0.10;;;;;;;;;;5003581;28;20507;-64
2023/08/14 06:58:01;;;;;;;0.60;0.20;;;22.10;99.90;;;;;;4998036;28;20441;-65
2023/08/14 07:00:28;;;;;;;0.60;0.10;;;22.20;99.90;;;;;;5010900;28;20531;-65
2023/08/14 07:02:56;;;;;;;0.60;0.10;;;22.20;99.90;;;;;;5005679;28;20498;-65
2023/08/14 07:05:24;;;;;;;0.60;0.10;;;22.30;99.90;;;;;;5001736;28;21228;-65
2023/08/14 07:07:54;;;;;;;0.60;0.10;;;22.30;99.90;;;;;;5006149;28;20518;-67
2023/08/14 07:10:22;;;;;;;0.60;0.20;;;;;;;;;;5006584;28;20484;-67
2023/08/14 07:12:50;;;;;;;0.60;0.10;;;22.40;99.90;;;;;;5011281;28;20467;-65
2023/08/14 07:15:18;;;;;;;0.80;0.20;;;;;;;;;;5002895;28;20626;-66
2023/08/14 07:17:47;;;;;;;0.60;0.10;;;;;;;;;;5004166;28;20986;-66
2023/08/14 07:20:15;;;;;;;0.60;0.10;;;22.50;99.90;;;;;;4995756;28;20464;-66
2023/08/14 07:22:43;;;;;;;0.60;0.20;;;;;;;;;;4994847;28;20543;-68
2023/08/14 07:25:13;;;;;;;1.20;0.30;;;22.60;99.90;;;;;;5009041;28;20470;-66
2023/08/14 07:27:41;;;;;;;0.60;0.10;;;;;;;;;;5008436;28;20557;-66
2023/08/14 07:30:10;;;;;;;0.60;0.10;;;22.60;99.90;;;;;;5000933;28;21037;-66
2023/08/14 07:32:38;;;;;;;0.60;0.20;;;;;;;;;;5007248;28;20515;-66
2023/08/14 07:35:07;;;;;;;0.60;0.10;;;22.70;99.90;;;;;;4991103;28;20523;-69
2023/08/14 07:37:35;;;;;;;0.60;0.10;;;22.70;99.90;;;;;;4991968;28;20452;-67
2023/08/14 07:40:06;;;;;;;0.60;0.10;;;22.70;99.90;;;;;;4993393;28;20467;-64
2023/08/14 07:42:36;;;;;;;0.60;0.10;;;;;;;;;;5005095;28;20458;-65
2023/08/14 07:45:04;;;;;;;0.60;0.10;;;22.90;99.90;;;;;;5004908;28;20613;-65
2023/08/14 07:47:32;;;;;;;0.60;0.10;;;22.90;99.90;;;;;;5000437;28;20556;-64
2023/08/14 07:50:00;;;;;;;0.60;0.20;;;23.00;99.90;;;;;;4999079;28;21036;-66
2023/08/14 07:52:30;;;;;;;0.60;0.10;;;;;;;;;;5003497;28;20513;-67
2023/08/14 07:54:58;;;;;;;0.63;0.23;;;23.10;99.90;;;;;;4994974;28;20497;-67
2023/08/14 07:57:26;;;;;;;0.60;0.10;;;;;;;;;;4998429;28;20518;-67
2023/08/14 07:59:55;;;;;;;0.60;0.10;;;23.20;99.90;;;;;;4998835;28;20523;-64
2023/08/14 08:02:23;;;;;;;0.60;0.10;;;;;;;;;;5006053;28;20513;-66
2023/08/14 08:04:53;;;;;;;0.60;0.10;;;23.30;99.90;;;;;;5000294;28;20445;-65
2023/08/14 08:07:22;;;;;;;0.60;0.20;;;;;;;;;;5002082;28;20487;-67
2023/08/14 08:09:52;;;;;;;0.60;0.20;;;23.50;99.90;;;;;;5010350;28;20502;-65
2023/08/14 08:12:21;;;;;;;0.60;0.10;;;;;;;;;;4996884;28;20472;-66
2023/08/14 08:14:49;;;;;;;0.60;0.10;;;;;;;;;;4984566;28;20465;-67
2023/08/14 08:17:18;;;;;;;0.60;0.10;;;23.90;99.90;;;;;;4991010;28;20586;-67
2023/08/14 08:19:46;;;;;;;0.60;0.10;;;24.00;99.90;;;;;;5002043;28;20439;-66
2023/08/14 08:22:15;;;;;;;0.67;0.10;;;24.10;99.90;;;;;;4996142;28;20629;-66
2023/08/14 08:24:43;;;;;;;0.67;0.10;;;;;;;;;;5009669;28;20589;-69
2023/08/14 08:27:11;;;;;;;0.70;0.10;;;24.20;99.90;;;;;;5004461;28;20548;-69
2023/08/14 08:29:39;;;;;;;0.70;0.10;;;24.30;99.90;;;;;;5001542;28;20447;-71
2023/08/14 08:32:08;;;;;;;0.70;0.20;;;24.30;99.90;;;;;;4992739;28;20504;-71
2023/08/14 08:34:37;;;;;;;0.60;0.10;;;24.30;99.90;;;;;;5007495;28;20502;-69
2023/08/14 08:37:06;;;;;;;0.60;0.10;;;;;;;;;;4996104;28;20491;-72
2023/08/14 08:39:34;;;;;;;0.67;0.13;;;;;;;;;;5001378;28;20441;-71
2023/08/14 08:42:03;;;;;;;0.70;0.20;;;24.50;99.90;;;;;;5004284;28;20440;-69
2023/08/14 08:44:33;;;;;;;0.70;0.10;;;24.50;99.90;;;;;;4994546;28;20555;-71
2023/08/14 08:47:07;;;;;;;0.70;0.20;;;24.70;99.90;;;;;;4990192;28;20482;-68
2023/08/14 08:49:37;;;;;;;0.70;0.13;;;24.80;99.90;;;;;;4989923;28;20445;-72
2023/08/14 08:52:05;;;;;;;0.60;0.10;;;;;;;;;;4990436;28;20507;-72
2023/08/14 08:54:34;;;;;;;0.70;0.10;;;24.90;99.90;;;;;;4990111;28;20448;-71
2023/08/14 08:57:02;;;;;;;0.70;0.10;;;;;;;;;;4990187;28;20477;-69
2023/08/14 08:59:31;;;;;;;0.60;0.10;;;24.90;99.90;;;;;;4990307;28;20536;-68
2023/08/14 09:02:00;;;;;;;0.70;0.10;;;24.90;99.90;;;;;;4991675;28;20441;-69
2023/08/14 09:04:28;;;;;;;0.70;0.20;;;24.90;99.90;;;;;;4991362;28;20448;-69
2023/08/14 09:06:58;;;;;;;0.70;0.10;;;24.90;99.90;;;;;;4992057;28;20552;-70
2023/08/14 09:09:26;;;;;;;0.70;0.10;;;24.90;99.90;;;;;;5001915;28;20532;-69
2023/08/14 09:11:54;;;;;;;0.70;0.10;;;;;;;;;;4995885;28;20511;-70
2023/08/14 09:14:23;;;;;;;0.70;0.10;;;25.00;99.90;;;;;;5006845;28;20440;-69
2023/08/14 09:16:53;;;;;;;0.70;0.10;;;25.10;99.90;;;;;;4996569;28;20498;-71
2023/08/14 09:19:21;;;;;;;0.70;0.10;;;25.10;99.90;;;;;;5000379;28;20503;-69
2023/08/14 09:21:49;;;;;;;0.70;0.10;;;25.10;99.90;;;;;;5005096;28;20494;-70
2023/08/14 09:24:19;;;;;;;0.70;0.10;;;25.10;99.90;;;;;;4994384;28;20535;-70
2023/08/14 09:26:48;;;;;;;0.70;0.10;;;;;;;;;;5007065;28;20543;-69
2023/08/14 09:29:16;;;;;;;0.70;0.10;;;25.20;99.90;;;;;;4994059;28;20484;-69
2023/08/14 09:31:49;;;;;;;0.70;0.10;;;;;;;;;;4993503;28;20827;-69
2023/08/14 09:34:18;;;;;;;0.70;0.10;;;;;;;;;;4991620;28;20878;-71
2023/08/14 09:36:46;;;;;;;1.30;0.20;;;25.20;99.90;;;;;;4993470;28;20795;-71
2023/08/14 09:39:19;;;;;;;0.70;0.10;;;25.30;99.90;;;;;;4996660;28;20444;-71
2023/08/14 09:41:48;;;;;;;0.70;0.10;;;25.30;99.90;;;;;;4994501;28;20521;-70
2023/08/14 09:44:18;;;;;;;0.70;0.20;;;25.30;99.90;;;;;;4996694;28;20528;-68
2023/08/14 09:46:47;;;;;;;0.70;0.10;;;;;;;;;;5007975;28;20518;-69
2023/08/14 09:49:17;;;;;;;0.70;0.10;;;25.30;99.90;;;;;;5011701;28;20543;-71
2023/08/14 09:51:54;;;;;;;0.70;0.20;;;25.30;99.90;;;;;;4999695;28;20562;-70
2023/08/14 09:54:31;;;;;;;0.70;0.10;;;25.40;99.90;;;;;;5002121;28;20864;-69
2023/08/14 09:57:02;;;;;;;0.70;0.10;;;25.50;99.90;;;;;;4993205;28;20461;-69
2023/08/14 09:59:35;;;;;;;0.70;0.10;;;25.40;99.90;;;;;;4983392;28;20920;-69
2023/08/14 10:02:06;;;;;;;0.70;0.10;;;25.40;99.90;;;;;;5004906;28;20441;-68
2023/08/14 10:05:00;;;;;;;0.70;0.10;;;25.50;99.90;;;;;;5009527;28;20439;-70
2023/08/14 10:07:29;;;;;;;0.70;0.10;;;25.60;99.90;;;;;;4979146;28;20484;-70
2023/08/14 10:10:03;;;;;;;0.70;0.20;;;25.70;99.90;;;;;;4992871;28;20463;-72
2023/08/14 10:12:36;;;;;;;0.70;0.10;;;25.70;99.90;;;;;;4984708;28;20489;-69
2023/08/14 10:15:08;;;;;;;0.70;0.10;;;25.80;99.90;;;;;;4992545;28;20529;-70
2023/08/14 10:17:46;;;;;;;0.70;0.10;;;25.80;99.90;;;;;;5039238;23;20600;-75
2023/08/14 10:20:16;;;;;;;2.50;2.30;;;25.80;99.90;;;;;;4972995;28;20929;-74
2023/08/14 10:22:44;;;;;;;0.70;0.10;;;25.90;99.90;;;;;;4972308;28;20441;-76
2023/08/14 10:25:15;;;;;;;0.70;0.10;;;26.00;99.90;;;;;;4973389;28;20552;-74
2023/08/14 10:27:44;;;;;;;0.70;0.10;;;26.00;99.90;;;;;;4972799;28;20461;-75
2023/08/14 10:30:12;;;;;;;0.70;0.20;;;26.00;99.90;;;;;;4974131;28;20540;-74
2023/08/14 10:32:41;;;;;;;0.70;0.10;;;26.00;99.90;;;;;;4968411;28;20492;-73
2023/08/14 10:35:11;;;;;;;0.70;0.10;;;26.10;99.90;;;;;;4969924;28;20465;-76
2023/08/14 10:37:43;;;;;;;0.70;0.10;;;26.10;99.90;;;;;;4963811;28;20463;-76
2023/08/14 10:40:25;;;;;;;0.70;0.20;;;26.20;99.90;;;;;;4973675;28;20450;-76
2023/08/14 10:42:55;;;;;;;0.70;0.20;;;26.30;99.90;;;;;;4972087;28;20816;-74
2023/08/14 10:45:24;;;;;;;0.70;0.20;;;26.30;99.90;;;;;;4954536;29;20506;-74
2023/08/14 10:47:54;;;;;;;0.70;0.10;;;26.40;99.90;;;;;;4954682;28;20510;-73
2023/08/14 10:50:24;;;;;;;0.70;0.10;;;26.50;99.90;;;;;;4954729;28;20477;-76
2023/08/14 10:52:54;;;;;;;0.80;0.40;;;26.50;99.90;;;;;;4957806;28;20490;-73
2023/08/14 10:55:26;;;;;;;0.80;0.40;;;26.50;99.90;;;;;;4971466;28;20525;-73
2023/08/14 10:57:55;;;;;;;0.90;0.30;;;26.70;99.90;;;;;;4966087;28;20438;-74
2023/08/14 11:00:25;;;;;;;0.70;0.20;;;26.80;99.90;;;;;;4968983;28;20614;-75
2023/08/14 11:03:04;;;;;;;0.70;0.20;;;26.80;99.90;;;;;;4968420;28;20944;-73
2023/08/14 11:05:37;;;;;;;1.27;0.43;;;27.10;99.90;;;;;;4965156;28;20774;-75
2023/08/14 11:08:07;;;;;;;0.70;0.10;;;27.10;99.90;;;;;;4966843;28;20431;-75
2023/08/14 11:10:37;;;;;;;0.70;0.10;;;27.30;99.90;;;;;;4967752;28;20472;-73
2023/08/14 11:13:06;;;;;;;0.80;0.33;;;27.30;99.90;;;;;;4963964;28;20488;-75
2023/08/14 11:15:36;;;;;;;0.80;0.33;;;27.20;99.90;;;;;;4959083;28;20945;-76
2023/08/14 11:18:05;;;;;;;3.00;1.07;;;27.20;99.90;;;;;;4969809;28;20458;-73
2023/08/14 11:20:36;;;;;;;1.10;0.50;;;;;;;;;;4959457;28;20450;-75
2023/08/14 11:23:04;;;;;;;1.43;0.60;;;26.80;99.90;;;;;;4963343;28;20474;-75
2023/08/14 11:25:33;;;;;;;0.70;0.27;;;26.90;99.90;;;;;;4966954;28;20548;-75
2023/08/14 11:28:03;;;;;;;0.80;0.33;;;27.10;99.90;;;;;;4966503;28;20871;-75
2023/08/14 11:30:33;;;;;;;0.97;0.47;;;27.20;99.90;;;;;;4972873;28;20954;-75
2023/08/14 11:33:04;;;;;;;0.70;0.20;;;27.30;99.90;;;;;;4968640;28;20482;-74
2023/08/14 11:35:32;;;;;;;1.13;0.33;;;;;;;;;;4964318;28;20830;-74
2023/08/14 11:38:01;;;;;;;0.70;0.20;;;27.20;99.90;;;;;;4970291;28;20896;-74
2023/08/14 11:40:35;;;;;;;1.70;1.60;;;27.00;99.90;;;;;;4964758;28;20536;-73
2023/08/14 11:43:05;;;;;;;1.87;1.10;;;26.90;99.90;;;;;;4969979;28;20442;-75
2023/08/14 11:45:37;;;;;;;0.70;0.20;;;27.00;99.90;;;;;;4956280;28;20446;-77
2023/08/14 11:48:07;;;;;;;0.93;0.57;;;27.00;99.90;;;;;;4958682;28;20487;-74
2023/08/14 11:50:35;;;;;;;0.83;0.30;;;27.00;99.90;;;;;;4963622;28;21125;-70
2023/08/14 11:53:04;;;;;;;0.93;0.30;;;27.00;99.90;;;;;;4971492;28;20481;-77
2023/08/14 11:55:32;;;;;;;0.70;0.30;;;27.10;99.90;;;;;;4972323;28;20460;-74
2023/08/14 11:58:00;;;;;;;0.70;0.37;;;27.10;99.90;;;;;;4963022;28;20564;-71
2023/08/14 12:00:30;;;;;;;0.70;0.30;;;27.00;99.90;;;;;;4962183;28;20478;-73
2023/08/14 12:03:01;;;;;;;0.70;0.20;;;27.00;99.90;;;;;;4972349;28;20445;-72
2023/08/14 12:05:29;;;;;;;0.80;0.60;;;26.50;99.90;;;;;;4956635;28;20470;-73
2023/08/14 12:08:00;;;;;;;0.70;0.20;;;27.10;99.90;;;;;;4973134;28;20949;-72
2023/08/14 12:10:32;;;;;;;0.70;0.10;;;27.10;99.90;;;;;;4965069;28;20449;-72
2023/08/14 12:13:00;;;;;;;1.20;0.40;;;27.10;99.90;;;;;;4960246;28;20482;-73
2023/08/14 12:15:30;;;;;;;4.53;1.93;;;27.10;99.90;;;;;;4969877;28;20446;-75
2023/08/14 12:17:58;;;;;;;2.30;1.20;;;27.10;99.90;;;;;;4959505;28;20537;-75
2023/08/14 12:20:32;;;;;;;0.70;0.40;;;27.00;99.90;;;;;;4963924;28;20476;-74
2023/08/14 12:23:11;;;;;;;0.70;0.30;;;27.20;99.90;;;;;;4965671;28;20528;-75
2023/08/14 12:25:39;;;;;;;1.87;1.47;;;27.30;99.90;;;;;;4958338;28;20483;-74
2023/08/14 12:28:07;;;;;;;0.97;0.87;;;27.30;99.90;;;;;;4965790;28;20538;-73
2023/08/14 12:30:36;;;;;;;0.80;0.40;;;27.50;99.90;;;;;;4957952;28;20466;-74
2023/08/14 12:33:05;;;;;;;0.80;0.43;;;27.50;99.90;;;;;;4963480;28;20485;-77
2023/08/14 12:35:35;;;;;;;0.70;0.20;;;27.80;99.90;;;;;;4971484;28;20548;-76
2023/08/14 12:38:03;;;;;;;0.70;0.10;;;27.80;99.90;;;;;;4966291;28;20856;-75
2023/08/14 12:40:31;;;;;;;0.70;0.10;;;27.90;99.90;;;;;;4963151;28;20981;-76
2023/08/14 12:42:59;;;;;;;0.70;0.20;;;27.90;99.90;;;;;;4961252;28;20892;-77
2023/08/14 12:45:28;;;;;;;0.70;0.20;;;27.80;99.90;;;;;;4955301;28;20535;-76
2023/08/14 12:47:57;;;;;;;0.70;0.30;;;27.70;99.90;;;;;;4967518;28;20454;-73
2023/08/14 12:50:26;;;;;;;1.17;0.93;;;27.60;99.90;;;;;;4961455;28;20454;-76
2023/08/14 12:52:54;;;;;;;0.70;0.10;;;;;;;;;;4959526;28;20489;-74
2023/08/14 12:55:22;;;;;;;0.70;0.10;;;27.60;99.90;;;;;;4966562;28;20468;-78
2023/08/14 12:57:55;;;;;;;0.80;0.27;;;27.70;99.90;;;;;;4968981;28;20455;-75
2023/08/14 13:00:23;;;;;;;0.70;0.17;;;27.70;99.90;;;;;;4964151;28;20994;-75
2023/08/14 13:02:51;;;;;;;0.70;0.10;;;27.60;99.90;;;;;;4963377;28;20480;-74
2023/08/14 13:05:20;;;;;;;0.70;0.20;;;27.50;99.90;;;;;;4955271;29;20458;-75
2023/08/14 13:07:48;;;;;;;0.70;0.17;;;27.60;99.90;;;;;;4954437;28;20529;-74
2023/08/14 13:10:16;;;;;;;1.20;0.40;;;27.60;99.90;;;;;;4954905;29;20912;-75
2023/08/14 13:12:44;;;;;;;0.70;0.10;;;27.70;99.90;;;;;;4954348;29;20447;-74
2023/08/14 13:15:11;;;;;;;2.63;2.20;;;27.80;99.90;;;;;;4954253;29;20828;-74
2023/08/14 13:17:39;;;;;;;0.70;0.10;;;27.80;99.90;;;;;;4954699;28;20479;-75
2023/08/14 13:20:09;;;;;;;0.70;0.10;;;27.80;99.90;;;;;;4955697;29;20451;-75
2023/08/14 13:22:38;;;;;;;0.80;0.47;;;27.80;99.90;;;;;;4955404;29;20448;-74
2023/08/14 13:25:06;;;;;;;0.80;0.37;;;27.80;99.90;;;;;;4963688;28;20490;-75
2023/08/14 13:27:35;;;;;;;0.80;0.30;;;27.70;99.90;;;;;;4969450;28;20916;-75
2023/08/14 13:30:08;;;;;;;0.80;0.40;;;27.60;96.60;;;;;;4964404;28;20821;-74
2023/08/14 13:32:46;;;;;;;0.70;0.20;;;27.50;97.70;;;;;;4971056;28;20446;-73
2023/08/14 13:35:14;;;;;;;0.73;0.27;;;27.50;99.80;;;;;;4970719;28;20487;-73
2023/08/14 13:37:43;;;;;;;1.20;0.70;;;27.40;99.90;;;;;;4960103;28;21050;-73
2023/08/14 13:40:12;;;;;;;0.70;0.10;;;27.40;99.90;;;;;;4964245;28;20821;-74
2023/08/14 13:42:40;;;;;;;1.20;1.03;;;27.30;99.90;;;;;;4964870;28;20462;-76
2023/08/14 13:45:09;;;;;;;0.70;0.23;;;27.40;99.90;;;;;;4966369;28;20941;-77
2023/08/14 13:47:45;;;;;;;1.77;1.67;;;27.30;99.90;;;;;;4965293;28;20467;-75
2023/08/14 13:50:24;;;;;;;0.70;0.10;;;27.20;99.90;;;;;;4961115;28;21010;-75
2023/08/14 13:52:56;;;;;;;0.70;0.10;;;27.00;99.90;;;;;;4963875;28;21157;-74
2023/08/14 13:55:24;;;;;;;0.70;0.10;;;27.10;99.90;;;;;;4963460;28;20528;-75
2023/08/14 13:57:52;;;;;;;0.70;0.10;;;27.00;99.90;;;;;;4963240;28;20525;-73
2023/08/14 14:00:23;;;;;;;0.70;0.20;;;27.00;99.90;;;;;;4963735;28;20450;-73
2023/08/14 14:02:56;;;;;;;0.70;0.10;;;27.10;99.90;;;;;;4963682;28;20458;-76
2023/08/14 14:05:25;;;;;;;0.70;0.10;;;27.10;99.90;;;;;;4962175;28;20438;-74
2023/08/14 14:07:54;;;;;;;0.70;0.10;;;27.30;99.90;;;;;;4963653;28;20524;-75
2023/08/14 14:10:25;;;;;;;0.70;0.10;;;27.50;99.90;;;;;;4962939;28;20506;-73
2023/08/14 14:12:54;;;;;;;0.70;0.10;;;27.50;99.90;;;;;;4962466;28;20454;-73
2023/08/14 14:15:29;;;;;;;0.70;0.10;;;27.60;99.90;;;;;;4963227;28;20565;-73
2023/08/14 14:17:57;;;;;;;0.70;0.20;;;27.60;99.90;;;;;;4962407;28;21002;-74
2023/08/14 14:20:25;;;;;;;0.70;0.10;;;27.70;99.90;;;;;;4963511;28;20530;-74
2023/08/14 14:22:53;;;;;;;0.70;0.10;;;27.70;99.90;;;;;;4964141;28;20537;-77
2023/08/14 14:25:21;;;;;;;0.70;0.10;;;27.70;99.90;;;;;;4963412;28;20478;-75
2023/08/14 14:27:50;;;;;;;0.70;0.20;;;27.70;99.90;;;;;;4963709;28;20615;-78
2023/08/14 14:30:18;;;;;;;0.70;0.10;;;27.70;99.90;;;;;;4964005;28;20538;-75
2023/08/14 14:32:46;;;;;;;0.70;0.10;;;27.70;99.90;;;;;;4963436;28;20446;-74
2023/08/14 14:35:14;;;;;;;0.70;0.10;;;27.70;99.90;;;;;;4963247;28;20482;-75
2023/08/14 14:37:42;;;;;;;0.70;0.20;;;27.70;99.90;;;;;;4962904;28;20554;-74
2023/08/14 14:40:11;;;;;;;0.70;0.13;;;27.70;99.90;;;;;;4963892;28;20546;-76
2023/08/14 14:42:38;;;;;;;0.70;0.10;;;27.70;99.90;;;;;;4963327;28;20478;-74
2023/08/14 14:45:10;;;;;;;0.70;0.20;;;27.80;99.90;;;;;;4964365;28;20450;-76
2023/08/14 14:47:51;;;;;;;0.93;0.67;;;27.80;99.90;;;;;;4963307;28;20479;-75
2023/08/14 14:50:18;;;;;;;0.70;0.10;;;27.80;99.90;;;;;;4964122;28;20447;-75
2023/08/14 14:52:56;;;;;;;0.70;0.10;;;27.80;99.90;;;;;;4963412;28;20453;-76
2023/08/14 14:55:26;;;;;;;0.70;0.10;;;27.80;99.90;;;;;;4964573;28;20482;-73
2023/08/14 14:57:54;;;;;;;1.27;1.17;;;27.70;99.90;;;;;;4962716;28;20561;-73
2023/08/14 15:00:24;;;;;;;0.70;0.30;;;27.60;99.90;;;;;;4964142;28;20462;-76
2023/08/14 15:02:53;;;;;;;0.70;0.10;;;;;;;;;;4964189;28;20936;-76
2023/08/14 15:05:21;;;;;;;0.70;0.10;;;28.00;99.90;;;;;;4964105;28;20457;-74
2023/08/14 15:07:56;;;;;;;0.70;0.10;;;28.20;99.90;;;;;;4963853;28;20454;-74
2023/08/14 15:10:24;;;;;;;0.70;0.10;;;28.20;99.90;;;;;;4963686;28;20449;-75
2023/08/14 15:12:52;;;;;;;0.70;0.10;;;28.30;99.90;;;;;;4963859;28;20454;-75
2023/08/14 15:15:21;;;;;;;0.70;0.20;;;28.30;99.90;;;;;;4964230;28;20529;-76
2023/08/14 15:17:50;;;;;;;0.70;0.10;;;28.40;98.70;;;;;;4963535;28;20486;-74
2023/08/14 15:20:19;;;;;;;0.70;0.10;;;28.40;99.90;;;;;;4961918;28;20768;-75
2023/08/14 15:22:46;;;;;;;0.70;0.20;;;28.40;99.90;;;;;;4962416;28;20446;-75
2023/08/14 15:25:14;;;;;;;0.70;0.10;;;28.50;95.00;;;;;;4962571;28;20557;-74
2023/08/14 15:27:42;;;;;;;0.70;0.10;;;28.80;97.30;;;;;;4962808;28;20508;-75
2023/08/14 15:30:11;;;;;;;0.70;0.20;;;31.80;99.90;;;;;;4963653;28;20463;-74
2023/08/14 15:32:39;;;;;;;0.70;0.20;;;29.00;94.50;;;;;;4963142;28;20813;-74
2023/08/14 15:35:08;;;;;;;0.70;0.20;;;29.00;93.70;;;;;;4966212;28;20500;-74
2023/08/14 15:37:36;;;;;;;1.80;1.67;;;28.90;93.10;;;;;;4968687;28;20571;-74
2023/08/14 15:40:05;;;;;;;0.70;0.10;;;28.70;92.00;;;;;;4966534;28;20540;-73
2023/08/14 15:42:33;;;;;;;1.03;0.93;;;28.70;97.50;;;;;;4952685;28;20459;-75
2023/08/14 15:45:03;;;;;;;1.47;0.57;;;28.60;97.70;;;;;;4963940;28;21023;-73
2023/08/14 15:47:34;;;;;;;0.70;0.20;;;28.30;93.70;;;;;;4962854;28;20825;-77
2023/08/14 15:50:02;;;;;;;0.70;0.10;;;28.20;94.00;;;;;;4965940;28;20460;-73
2023/08/14 15:52:32;;;;;;;0.70;0.13;;;28.20;95.90;;;;;;4967885;28;20469;-73
2023/08/14 15:55:00;;;;;;;0.70;0.10;;;28.20;99.90;;;;;;4965814;28;20522;-77
2023/08/14 15:57:28;;;;;;;0.70;0.10;;;28.20;96.70;;;;;;4970516;28;20967;-73
2023/08/14 15:59:56;;;;;;;0.70;0.10;;;28.10;99.90;;;;;;4953018;29;20479;-74
2023/08/14 16:02:24;;;;;;;0.70;0.10;;;28.00;99.90;;;;;;4954017;28;20455;-75
2023/08/14 16:04:52;;;;;;;0.70;0.10;;;27.90;99.90;;;;;;4960187;28;20475;-75
2023/08/14 16:07:21;;;;;;;0.70;0.10;;;27.90;99.90;;;;;;4966189;28;20462;-78
2023/08/14 16:09:51;;;;;;;0.70;0.10;;;27.80;99.90;;;;;;4956715;28;20526;-76
2023/08/14 16:12:19;;;;;;;0.70;0.10;;;;;;;;;;4966744;28;20498;-76
2023/08/14 16:14:47;;;;;;;0.70;0.10;;;27.70;99.90;;;;;;4961461;28;20489;-78
2023/08/14 16:17:15;;;;;;;0.70;0.13;;;27.70;99.90;;;;;;4958873;28;21011;-75
2023/08/14 16:19:45;;;;;;;0.70;0.10;;;27.70;99.90;;;;;;4967917;28;20446;-75
2023/08/14 16:22:12;;;;;;;0.70;0.10;;;27.60;99.90;;;;;;4956491;28;20889;-76
2023/08/14 16:24:41;;;;;;;0.70;0.10;;;27.60;99.90;;;;;;4963624;28;20453;-75
2023/08/14 16:27:10;;;;;;;0.70;0.10;;;27.50;99.70;;;;;;4963787;28;21017;-75
2023/08/14 16:29:38;;;;;;;0.70;0.10;;;27.50;99.90;;;;;;4971034;28;20448;-74
2023/08/14 16:32:06;;;;;;;0.70;0.10;;;27.50;99.90;;;;;;4963730;28;20506;-75
2023/08/14 16:34:34;;;;;;;0.70;0.20;;;27.50;99.90;;;;;;4960460;28;20535;-77
2023/08/14 16:37:02;;;;;;;0.70;0.20;;;27.50;99.90;;;;;;4955201;28;20467;-77
2023/08/14 16:39:30;;;;;;;0.70;0.10;;;27.40;99.90;;;;;;4956042;29;20452;-75
2023/08/14 16:41:58;;;;;;;0.70;0.20;;;27.40;99.90;;;;;;4955529;29;20470;-74
2023/08/14 16:44:27;;;;;;;0.70;0.20;;;27.40;99.90;;;;;;4970604;28;20809;-76
2023/08/14 16:46:55;;;;;;;0.70;0.10;;;27.40;99.90;;;;;;4975335;28;20775;-76
2023/08/14 16:49:23;;;;;;;0.70;0.20;;;27.40;99.70;;;;;;4975821;28;20441;-75
2023/08/14 16:51:50;;;;;;;0.70;0.20;;;27.40;99.70;;;;;;4975936;28;20451;-75
2023/08/14 16:54:18;;;;;;;0.70;0.20;;;27.30;99.60;;;;;;4975559;28;20437;-75
2023/08/14 16:56:46;;;;;;;0.70;0.10;;;27.30;99.90;;;;;;4975222;28;20495;-75
2023/08/14 16:59:14;;;;;;;0.70;0.10;;;27.40;99.90;;;;;;4975589;28;20449;-76
2023/08/14 17:01:43;;;;;;;1.53;1.43;;;27.50;99.90;;;;;;4975182;28;20484;-77
2023/08/14 17:04:11;;;;;;;0.70;0.10;;;27.60;99.90;;;;;;4975663;28;20449;-76
2023/08/14 17:06:39;;;;;;;0.70;0.10;;;27.70;99.90;;;;;;4975600;28;20463;-75
2023/08/14 17:09:08;;;;;;;0.70;0.20;;;27.80;99.90;;;;;;4975209;28;20545;-75
2023/08/14 17:11:36;;;;;;;0.70;0.10;;;27.80;99.90;;;;;;4975367;28;20449;-75
2023/08/14 17:14:04;;;;;;;0.70;0.10;;;28.40;99.90;;;;;;4974926;28;20479;-76